Time;durP1;ratioP1;P1;durP2;ratioP2;P2;SDS_P1;SDS_P2;PMS_P1;PMS_P2;Temp;Humidity;BMP_temperature;BMP_pressure;BME280_temperature;BME280_humidity;BME280_pressure;Samples;Min_cycle;Max_cycle;Signal;HPM_P1;HPM_P2
2022/03/25 00:02:06;;;;;;;25.13;9.85;;;4.00;64.20;;;;;;5061952;28;20044;-68
2022/03/25 00:04:32;;;;;;;24.17;10.23;;;3.90;65.40;;;;;;5059201;28;20040;-68
2022/03/25 00:06:58;;;;;;;20.15;9.38;;;3.90;66.60;;;;;;5054199;28;20393;-68
2022/03/25 00:09:23;;;;;;;22.27;10.13;;;3.80;67.60;;;;;;5062621;28;20024;-68
2022/03/25 00:11:49;;;;;;;20.30;10.35;;;3.90;67.90;;;;;;5063240;28;20086;-68
2022/03/25 00:14:15;;;;;;;21.02;9.60;;;3.90;68.20;;;;;;5058848;28;20662;-68
2022/03/25 00:16:42;;;;;;;23.40;10.00;;;3.80;68.50;;;;;;5059660;28;20541;-66
2022/03/25 00:19:08;;;;;;;21.80;9.50;;;3.90;68.80;;;;;;5059727;28;20033;-67
2022/03/25 00:21:35;;;;;;;21.98;10.23;;;3.90;69.40;;;;;;5063690;28;20546;-66
2022/03/25 00:24:00;;;;;;;22.25;10.13;;;3.90;70.10;;;;;;5058699;28;20041;-67
2022/03/25 00:26:27;;;;;;;24.23;9.88;;;3.90;71.40;;;;;;5059933;28;20043;-67
2022/03/25 00:28:55;;;;;;;24.85;10.43;;;3.90;72.40;;;;;;5058893;28;20078;-67
2022/03/25 00:31:20;;;;;;;24.88;11.23;;;4.00;70.50;;;;;;5057553;28;20041;-67
2022/03/25 00:33:49;;;;;;;23.48;11.15;;;3.90;68.10;;;;;;5057332;28;20042;-68
2022/03/25 00:36:17;;;;;;;24.67;11.15;;;3.80;66.40;;;;;;5059341;28;20030;-68
2022/03/25 00:38:46;;;;;;;25.25;10.85;;;3.80;66.20;;;;;;5060639;28;20051;-67
2022/03/25 00:41:13;;;;;;;21.20;10.63;;;3.70;68.70;;;;;;5061197;28;20020;-68
2022/03/25 00:43:42;;;;;;;24.23;10.70;;;3.70;71.00;;;;;;5062796;28;20036;-70
2022/03/25 00:46:10;;;;;;;20.80;10.82;;;3.60;71.60;;;;;;5056455;28;20374;-69
2022/03/25 00:48:40;;;;;;;22.65;11.05;;;3.60;73.30;;;;;;5055042;28;20024;-68
2022/03/25 00:51:06;;;;;;;26.83;12.85;;;3.60;74.80;;;;;;5058737;28;20025;-67
2022/03/25 00:53:32;;;;;;;28.77;12.85;;;3.60;76.10;;;;;;5061819;28;20029;-69
2022/03/25 00:56:01;;;;;;;23.90;11.77;;;3.60;75.90;;;;;;5061061;28;20036;-67
2022/03/25 00:58:28;;;;;;;29.25;12.57;;;3.60;75.00;;;;;;5038612;28;20067;-69
2022/03/25 01:00:54;;;;;;;27.35;13.32;;;3.50;75.30;;;;;;5039259;28;20102;-70
2022/03/25 01:03:22;;;;;;;29.38;13.38;;;3.50;76.80;;;;;;5061531;28;20020;-68
2022/03/25 01:05:49;;;;;;;22.40;12.07;;;3.50;78.70;;;;;;5058823;28;20036;-69
2022/03/25 01:08:15;;;;;;;29.40;12.45;;;3.60;80.40;;;;;;5057347;28;20112;-69
2022/03/25 01:10:43;;;;;;;24.00;12.77;;;3.50;81.20;;;;;;5041218;28;20033;-69
2022/03/25 01:13:10;;;;;;;23.42;11.85;;;3.50;81.60;;;;;;5058933;28;20021;-68
2022/03/25 01:15:35;;;;;;;25.63;12.60;;;3.50;80.40;;;;;;5062054;28;20496;-68
2022/03/25 01:18:01;;;;;;;25.98;11.85;;;3.50;79.90;;;;;;5052132;28;20051;-69
2022/03/25 01:20:27;;;;;;;24.23;11.82;;;3.50;80.40;;;;;;5056734;28;20059;-69
2022/03/25 01:22:53;;;;;;;22.20;10.80;;;3.50;79.30;;;;;;5040308;28;20117;-68
2022/03/25 01:25:19;;;;;;;21.35;11.30;;;3.50;79.20;;;;;;5042752;28;20075;-68
2022/03/25 01:27:47;;;;;;;22.80;11.40;;;3.50;80.60;;;;;;5042976;28;20040;-69
2022/03/25 01:30:13;;;;;;;22.33;12.00;;;3.50;82.80;;;;;;5039602;28;20531;-69
2022/03/25 01:32:38;;;;;;;23.05;11.88;;;3.50;82.40;;;;;;5059208;28;20036;-68
2022/03/25 01:35:06;;;;;;;21.17;10.55;;;3.50;81.50;;;;;;5060357;28;20530;-68
2022/03/25 01:37:32;;;;;;;24.17;10.55;;;3.50;81.20;;;;;;5063060;28;20032;-68
2022/03/25 01:39:58;;;;;;;22.33;11.05;;;3.50;81.90;;;;;;5057953;28;20757;-68
2022/03/25 01:42:31;;;;;;;26.00;11.65;;;3.50;82.30;;;;;;5056938;28;20131;-68
2022/03/25 01:44:57;;;;;;;24.40;12.45;;;3.50;83.90;;;;;;5057865;28;20546;-69
2022/03/25 01:47:30;;;;;;;26.15;12.02;;;3.50;85.70;;;;;;5061133;28;20036;-69
2022/03/25 01:49:57;;;;;;;22.95;12.65;;;3.60;87.50;;;;;;5061580;28;20039;-68
2022/03/25 01:52:24;;;;;;;24.63;12.27;;;3.60;88.70;;;;;;5037850;28;20061;-69
2022/03/25 01:54:50;;;;;;;26.73;11.52;;;3.70;88.00;;;;;;5039880;28;20028;-69
2022/03/25 01:57:18;;;;;;;22.90;11.27;;;3.70;86.40;;;;;;5059780;28;20036;-69
2022/03/25 01:59:44;;;;;;;22.70;10.60;;;3.70;84.10;;;;;;5062200;28;20651;-69
2022/03/25 02:02:11;;;;;;;24.30;11.63;;;3.60;80.50;;;;;;5048881;28;20063;-69
2022/03/25 02:04:38;;;;;;;24.63;10.57;;;3.60;77.50;;;;;;5040104;28;20456;-68
2022/03/25 02:07:04;;;;;;;23.02;10.48;;;3.50;78.20;;;;;;5040372;28;20039;-69
2022/03/25 02:09:31;;;;;;;23.52;10.45;;;3.40;80.40;;;;;;5043709;28;20102;-69
2022/03/25 02:11:59;;;;;;;21.15;10.77;;;3.40;81.70;;;;;;5038786;28;20048;-69
2022/03/25 02:14:25;;;;;;;22.92;10.27;;;3.40;80.80;;;;;;5057478;28;20032;-69
2022/03/25 02:16:51;;;;;;;23.10;10.48;;;3.40;80.00;;;;;;5045735;28;20040;-69
2022/03/25 02:19:18;;;;;;;21.52;10.23;;;3.30;81.00;;;;;;5046528;28;20032;-69
2022/03/25 02:21:48;;;;;;;18.40;10.38;;;3.20;80.60;;;;;;5046193;28;20040;-69
2022/03/25 02:24:16;;;;;;;23.35;10.75;;;3.10;80.50;;;;;;5042402;28;20035;-69
2022/03/25 02:26:45;;;;;;;22.10;10.57;;;3.10;80.60;;;;;;5043151;28;20056;-69
2022/03/25 02:29:14;;;;;;;20.92;10.05;;;3.00;80.20;;;;;;5044219;28;20048;-70
2022/03/25 02:31:41;;;;;;;24.40;10.70;;;3.00;81.00;;;;;;5065419;28;20030;-69
2022/03/25 02:34:09;;;;;;;23.25;10.63;;;2.90;79.40;;;;;;5041211;28;20112;-69
2022/03/25 02:36:39;;;;;;;20.60;9.52;;;2.90;78.40;;;;;;5041744;28;20041;-69
2022/03/25 02:39:06;;;;;;;21.20;10.77;;;2.80;77.10;;;;;;5059782;28;20033;-69
2022/03/25 02:41:32;;;;;;;21.38;10.48;;;2.70;77.30;;;;;;5049621;28;20033;-69
2022/03/25 02:43:59;;;;;;;21.20;10.65;;;2.70;77.50;;;;;;5048876;28;20033;-68
2022/03/25 02:46:26;;;;;;;19.80;10.13;;;2.60;78.30;;;;;;5043381;28;20130;-69
2022/03/25 02:48:52;;;;;;;24.30;10.32;;;2.50;78.80;;;;;;5042805;28;20024;-69
2022/03/25 02:51:18;;;;;;;23.08;11.70;;;2.50;78.60;;;;;;5063204;28;20028;-68
2022/03/25 02:53:44;;;;;;;19.90;10.43;;;2.40;78.70;;;;;;5065249;28;20044;-69
2022/03/25 02:56:10;;;;;;;24.35;11.32;;;2.40;78.60;;;;;;5059205;28;20025;-68
2022/03/25 02:58:37;;;;;;;22.52;10.82;;;2.30;79.70;;;;;;5060475;28;20039;-69
2022/03/25 03:01:03;;;;;;;22.35;10.93;;;2.30;80.70;;;;;;5060160;28;20043;-68
2022/03/25 03:03:29;;;;;;;23.75;12.50;;;2.30;81.50;;;;;;5064285;28;20029;-69
2022/03/25 03:05:55;;;;;;;24.80;11.43;;;2.20;82.00;;;;;;5063506;28;20043;-68
2022/03/25 03:08:21;;;;;;;24.77;10.90;;;2.20;82.20;;;;;;5058050;28;20029;-68
2022/03/25 03:10:47;;;;;;;23.25;11.70;;;2.20;82.00;;;;;;5058261;28;20043;-69
2022/03/25 03:13:13;;;;;;;23.35;11.68;;;2.20;82.20;;;;;;5063494;28;20056;-69
2022/03/25 03:15:39;;;;;;;22.08;10.82;;;2.20;83.10;;;;;;5064410;28;20078;-69
2022/03/25 03:18:06;;;;;;;25.00;11.65;;;2.20;83.90;;;;;;5059304;28;20092;-69
2022/03/25 03:20:32;;;;;;;26.98;11.82;;;2.20;83.80;;;;;;5060568;28;20037;-69
2022/03/25 03:22:58;;;;;;;31.88;11.98;;;2.20;83.80;;;;;;5059121;28;20033;-69
2022/03/25 03:25:25;;;;;;;29.83;13.30;;;2.20;84.60;;;;;;5063185;28;20513;-68
2022/03/25 03:27:52;;;;;;;28.13;12.90;;;2.20;85.50;;;;;;5064563;28;20037;-69
2022/03/25 03:30:18;;;;;;;29.23;14.20;;;2.30;86.50;;;;;;5057372;28;20024;-69
2022/03/25 03:32:44;;;;;;;29.35;13.15;;;2.30;87.50;;;;;;5061747;28;20582;-68
2022/03/25 03:35:09;;;;;;;28.88;13.15;;;2.30;88.40;;;;;;5061490;28;20507;-69
2022/03/25 03:37:43;;;;;;;29.60;12.45;;;2.30;89.00;;;;;;5064919;28;20158;-69
2022/03/25 03:40:10;;;;;;;27.38;13.15;;;2.40;89.70;;;;;;5059147;28;20489;-68
2022/03/25 03:42:37;;;;;;;28.23;13.13;;;2.40;90.00;;;;;;5060290;28;20052;-68
2022/03/25 03:45:04;;;;;;;28.05;13.38;;;2.40;89.10;;;;;;5062019;28;20628;-68
2022/03/25 03:47:29;;;;;;;27.48;12.13;;;2.40;88.10;;;;;;5064244;28;20032;-69
2022/03/25 03:49:55;;;;;;;29.95;13.30;;;2.40;87.80;;;;;;5064236;28;20491;-69
2022/03/25 03:52:23;;;;;;;24.65;12.95;;;2.40;88.50;;;;;;5057676;28;20120;-69
2022/03/25 03:54:49;;;;;;;26.13;12.70;;;2.30;88.80;;;;;;5060425;28;20097;-68
2022/03/25 03:57:36;;;;;;;24.75;12.00;;;2.30;89.00;;;;;;5060986;28;20075;-69
2022/03/25 04:00:10;;;;;;;25.35;11.73;;;2.30;89.10;;;;;;5062259;28;20898;-69
2022/03/25 04:02:40;;;;;;;29.55;12.45;;;2.20;88.80;;;;;;5055006;28;20470;-69
2022/03/25 04:05:06;;;;;;;25.55;11.68;;;2.20;88.50;;;;;;5056631;28;20831;-69
2022/03/25 04:07:32;;;;;;;25.92;12.27;;;2.20;87.50;;;;;;5063895;28;20093;-68
2022/03/25 04:09:58;;;;;;;22.23;11.55;;;2.20;85.80;;;;;;5061713;28;20025;-69
2022/03/25 04:12:24;;;;;;;28.23;12.05;;;2.10;85.10;;;;;;5057969;28;20037;-69
2022/03/25 04:14:49;;;;;;;23.27;11.02;;;2.10;85.60;;;;;;5065072;28;20101;-69
2022/03/25 04:17:15;;;;;;;24.48;11.00;;;2.10;85.90;;;;;;5057874;28;20060;-68
2022/03/25 04:19:41;;;;;;;22.65;11.00;;;2.00;85.40;;;;;;5062575;28;20086;-68
2022/03/25 04:22:06;;;;;;;29.83;12.00;;;2.00;85.50;;;;;;5056774;28;20024;-68
2022/03/25 04:24:32;;;;;;;27.13;11.52;;;2.00;85.60;;;;;;5060991;28;20734;-69
2022/03/25 04:26:58;;;;;;;25.50;11.57;;;2.00;85.40;;;;;;5045741;28;20567;-69
2022/03/25 04:29:24;;;;;;;25.13;11.55;;;2.00;85.30;;;;;;5056927;28;20120;-68
2022/03/25 04:31:50;;;;;;;23.77;10.38;;;2.00;85.70;;;;;;5056907;28;20025;-69
2022/03/25 04:34:16;;;;;;;27.05;13.50;;;1.90;85.80;;;;;;5059978;28;20541;-69
2022/03/25 04:36:41;;;;;;;29.60;11.60;;;1.90;86.00;;;;;;5060746;28;20040;-69
2022/03/25 04:39:07;;;;;;;25.15;11.80;;;2.00;85.80;;;;;;5060542;28;20094;-68
2022/03/25 04:41:33;;;;;;;22.23;11.38;;;1.90;85.70;;;;;;5061038;28;20128;-69
2022/03/25 04:43:58;;;;;;;25.17;11.63;;;1.90;85.20;;;;;;5060410;28;20033;-69
2022/03/25 04:46:24;;;;;;;23.38;10.85;;;1.90;84.90;;;;;;5062300;28;20551;-69
2022/03/25 04:48:50;;;;;;;21.52;11.27;;;1.90;84.00;;;;;;5066213;28;20035;-68
2022/03/25 04:51:15;;;;;;;21.73;10.73;;;1.90;84.40;;;;;;5061573;28;20038;-68
2022/03/25 04:53:42;;;;;;;21.73;11.07;;;1.90;85.20;;;;;;5057317;28;20059;-68
2022/03/25 04:56:08;;;;;;;23.38;11.45;;;1.90;85.20;;;;;;5062925;28;20473;-68
2022/03/25 04:58:34;;;;;;;27.35;11.77;;;1.80;84.90;;;;;;5056124;28;20665;-69
2022/03/25 05:01:00;;;;;;;22.63;12.20;;;1.80;84.50;;;;;;5058163;28;20119;-69
2022/03/25 05:03:26;;;;;;;24.30;11.68;;;1.90;84.70;;;;;;5060002;28;20032;-68
2022/03/25 05:05:52;;;;;;;25.35;11.60;;;1.80;85.00;;;;;;5061396;28;20514;-69
2022/03/25 05:08:18;;;;;;;24.83;12.52;;;1.90;85.00;;;;;;5057504;28;20480;-69
2022/03/25 05:10:44;;;;;;;24.00;11.63;;;1.80;85.40;;;;;;5058973;28;20070;-69
2022/03/25 05:13:09;;;;;;;27.10;11.80;;;1.90;85.70;;;;;;5063739;28;20469;-69
2022/03/25 05:15:35;;;;;;;23.95;12.35;;;1.90;85.70;;;;;;5063623;28;20060;-68
2022/03/25 05:18:01;;;;;;;22.92;11.57;;;2.00;85.90;;;;;;5061690;28;20488;-69
2022/03/25 05:20:27;;;;;;;26.88;12.18;;;2.00;85.50;;;;;;5062849;28;20728;-68
2022/03/25 05:22:53;;;;;;;29.17;12.32;;;2.10;85.20;;;;;;5059196;28;20054;-68
2022/03/25 05:25:20;;;;;;;23.38;11.32;;;2.10;84.50;;;;;;5059412;28;20522;-68
2022/03/25 05:27:57;;;;;;;21.85;11.00;;;2.20;84.10;;;;;;5058776;28;20256;-68
2022/03/25 05:30:31;;;;;;;25.52;11.68;;;2.30;83.40;;;;;;5056995;28;20033;-69
2022/03/25 05:32:58;;;;;;;26.95;11.60;;;2.40;83.20;;;;;;5038892;28;20037;-69
2022/03/25 05:35:26;;;;;;;21.38;10.63;;;2.50;83.10;;;;;;5055361;28;20775;-69
2022/03/25 05:37:52;;;;;;;27.52;10.90;;;2.60;82.80;;;;;;5062121;28;20036;-69
2022/03/25 05:40:20;;;;;;;24.73;12.10;;;2.70;82.60;;;;;;5057221;28;20078;-69
2022/03/25 05:42:47;;;;;;;21.77;10.77;;;2.80;83.30;;;;;;5054306;28;20036;-69
2022/03/25 05:45:13;;;;;;;27.98;11.90;;;3.00;81.80;;;;;;5057118;28;20111;-69
2022/03/25 05:47:40;;;;;;;24.70;12.13;;;3.10;81.30;;;;;;5054276;28;20039;-69
2022/03/25 05:50:07;;;;;;;28.88;12.85;;;3.20;81.90;;;;;;5058682;28;20017;-69
2022/03/25 05:52:33;;;;;;;28.92;13.77;;;3.40;82.00;;;;;;5054830;28;20025;-68
2022/03/25 05:54:59;;;;;;;30.90;12.98;;;3.50;81.80;;;;;;5053878;28;20074;-68
2022/03/25 05:57:25;;;;;;;25.45;12.32;;;3.60;81.20;;;;;;5058802;28;20384;-69
2022/03/25 05:59:51;;;;;;;23.08;12.18;;;3.80;80.10;;;;;;5058221;28;20033;-69
2022/03/25 06:02:17;;;;;;;28.38;13.38;;;3.90;78.70;;;;;;5063374;28;20542;-69
2022/03/25 06:04:43;;;;;;;25.27;12.23;;;4.10;78.90;;;;;;5061396;28;20058;-68
2022/03/25 06:07:09;;;;;;;25.52;12.02;;;4.20;78.20;;;;;;5057678;28;20502;-69
2022/03/25 06:09:35;;;;;;;26.80;13.13;;;4.40;78.60;;;;;;5056605;28;20051;-68
2022/03/25 06:12:00;;;;;;;25.88;12.23;;;4.60;78.00;;;;;;5062261;28;20037;-68
2022/03/25 06:14:26;;;;;;;27.08;12.00;;;4.70;78.10;;;;;;5059024;28;20094;-69
2022/03/25 06:16:52;;;;;;;24.40;12.68;;;4.90;78.30;;;;;;5054045;28;20180;-68
2022/03/25 06:19:18;;;;;;;27.75;13.20;;;5.10;78.60;;;;;;5058368;28;20426;-69
2022/03/25 06:21:45;;;;;;;23.13;12.60;;;5.30;79.20;;;;;;5059487;28;20877;-67
2022/03/25 06:24:10;;;;;;;28.77;14.50;;;5.60;79.60;;;;;;5052418;28;20029;-68
2022/03/25 06:26:36;;;;;;;24.10;13.00;;;5.80;80.20;;;;;;5055668;28;20044;-69
2022/03/25 06:29:03;;;;;;;33.45;14.52;;;6.00;79.70;;;;;;5059205;28;20205;-69
2022/03/25 06:31:29;;;;;;;27.13;13.80;;;6.30;78.50;;;;;;5063090;28;20040;-68
2022/03/25 06:33:55;;;;;;;29.70;14.20;;;6.40;78.50;;;;;;5041541;28;20029;-69
2022/03/25 06:36:21;;;;;;;32.53;13.73;;;6.60;78.30;;;;;;5057203;28;20036;-69
2022/03/25 06:38:46;;;;;;;33.55;14.32;;;6.80;77.20;;;;;;5054253;28;20029;-69
2022/03/25 06:41:12;;;;;;;31.00;14.57;;;7.00;76.80;;;;;;5059515;28;20910;-69
2022/03/25 06:43:38;;;;;;;28.02;14.45;;;7.30;76.30;;;;;;5055890;28;20036;-69
2022/03/25 06:46:04;;;;;;;25.00;14.60;;;7.40;75.00;;;;;;5055829;28;20035;-69
2022/03/25 06:48:31;;;;;;;26.95;13.35;;;7.50;74.70;;;;;;5059791;28;20040;-67
2022/03/25 06:50:59;;;;;;;31.48;13.77;;;7.40;74.70;;;;;;5061788;28;20036;-69
2022/03/25 06:53:29;;;;;;;26.80;14.57;;;7.60;74.30;;;;;;5060603;28;20932;-69
2022/03/25 06:55:55;;;;;;;25.35;13.90;;;7.70;73.30;;;;;;5060154;28;20033;-68
2022/03/25 06:58:21;;;;;;;29.20;13.65;;;7.80;72.70;;;;;;5053151;28;20037;-69
2022/03/25 07:00:47;;;;;;;26.80;13.60;;;8.00;71.90;;;;;;5059454;28;20041;-69
2022/03/25 07:03:14;;;;;;;29.42;15.52;;;8.20;72.30;;;;;;5061372;28;20028;-69
2022/03/25 07:05:40;;;;;;;30.75;14.95;;;9.40;70.00;;;;;;5059038;28;20032;-67
2022/03/25 07:08:06;;;;;;;24.48;13.80;;;12.10;59.30;;;;;;5057884;28;20051;-67
2022/03/25 07:10:33;;;;;;;27.38;14.50;;;14.30;52.40;;;;;;5059552;28;20088;-67
2022/03/25 07:12:59;;;;;;;27.63;15.57;;;16.00;48.00;;;;;;5062105;28;20028;-67
2022/03/25 07:15:25;;;;;;;22.35;14.07;;;17.40;43.40;;;;;;5062254;28;20082;-66
2022/03/25 07:17:54;;;;;;;25.55;15.63;;;18.50;41.10;;;;;;5064712;28;20036;-67
2022/03/25 07:20:23;;;;;;;26.23;15.18;;;18.70;39.10;;;;;;5062293;28;20489;-67
2022/03/25 07:22:52;;;;;;;32.05;16.85;;;18.00;39.90;;;;;;5061548;28;20071;-67
2022/03/25 07:25:18;;;;;;;27.95;14.98;;;17.70;41.30;;;;;;5057646;28;20074;-67
2022/03/25 07:27:46;;;;;;;31.70;16.10;;;17.30;42.10;;;;;;5065497;28;20075;-66
2022/03/25 07:30:13;;;;;;;29.60;16.20;;;17.10;43.30;;;;;;5061295;28;20028;-67
2022/03/25 07:32:39;;;;;;;29.58;16.40;;;17.70;42.20;;;;;;5058109;28;20055;-67
2022/03/25 07:35:06;;;;;;;28.85;16.33;;;17.70;41.80;;;;;;5064100;28;20036;-67
2022/03/25 07:37:32;;;;;;;32.42;16.80;;;17.40;41.50;;;;;;5061670;28;20033;-65
2022/03/25 07:39:58;;;;;;;33.63;18.42;;;17.00;42.00;;;;;;5062904;28;20564;-67
2022/03/25 07:42:24;;;;;;;31.10;16.35;;;17.90;40.60;;;;;;5061678;28;20021;-67
2022/03/25 07:44:50;;;;;;;31.10;16.55;;;19.20;37.00;;;;;;5059012;28;20037;-67
2022/03/25 07:47:16;;;;;;;24.25;14.25;;;20.30;35.50;;;;;;5060623;28;20102;-67
2022/03/25 07:49:43;;;;;;;26.20;16.35;;;21.60;33.30;;;;;;5061535;28;20532;-67
2022/03/25 07:52:10;;;;;;;25.25;15.05;;;22.70;31.50;;;;;;5058832;28;20020;-67
2022/03/25 07:54:36;;;;;;;26.55;15.60;;;23.50;30.80;;;;;;5059256;28;20534;-65
2022/03/25 07:57:02;;;;;;;26.50;15.82;;;24.30;29.60;;;;;;5063651;28;20097;-67
2022/03/25 07:59:29;;;;;;;27.00;17.08;;;24.80;28.90;;;;;;5058888;28;20748;-67
2022/03/25 08:01:56;;;;;;;23.23;15.68;;;25.10;29.00;;;;;;5057228;28;20082;-68
2022/03/25 08:04:24;;;;;;;38.22;19.48;;;25.60;29.20;;;;;;5061908;28;20481;-67
2022/03/25 08:06:53;;;;;;;33.65;18.38;;;25.30;29.00;;;;;;5061121;28;20040;-67
2022/03/25 08:09:19;;;;;;;26.33;16.58;;;24.80;29.20;;;;;;5061130;28;20039;-67
2022/03/25 08:11:46;;;;;;;29.65;17.95;;;24.90;29.40;;;;;;5056375;28;20033;-67
2022/03/25 08:14:12;;;;;;;28.30;18.13;;;25.50;28.50;;;;;;5057158;28;20057;-67
2022/03/25 08:16:38;;;;;;;33.15;19.10;;;25.40;28.40;;;;;;5055911;28;20044;-67
2022/03/25 08:19:05;;;;;;;38.03;21.00;;;24.90;29.10;;;;;;5063446;28;20173;-68
2022/03/25 08:21:32;;;;;;;31.40;19.70;;;24.20;29.20;;;;;;5061311;28;20086;-68
2022/03/25 08:29:27;;;;;;;30.60;17.10;;;23.10;30.30;;;;;;5063376;28;20772;-68
2022/03/25 08:31:53;;;;;;;29.20;16.55;;;22.80;30.60;;;;;;5059435;28;20033;-68
2022/03/25 08:34:19;;;;;;;35.55;17.20;;;23.10;29.60;;;;;;5052099;28;20048;-66
2022/03/25 08:36:47;;;;;;;28.33;15.20;;;22.90;29.60;;;;;;5056947;28;20036;-67
2022/03/25 08:39:13;;;;;;;27.52;15.15;;;23.10;29.70;;;;;;5058913;28;20028;-68
2022/03/25 08:41:39;;;;;;;27.25;14.90;;;24.10;28.70;;;;;;5059611;28;20472;-68
2022/03/25 08:44:06;;;;;;;26.83;15.52;;;25.50;27.00;;;;;;5055783;28;20069;-69
2022/03/25 08:46:34;;;;;;;23.98;15.57;;;25.70;27.00;;;;;;5058021;28;20033;-67
2022/03/25 08:49:00;;;;;;;28.52;15.85;;;24.40;27.50;;;;;;5060888;28;20101;-68
2022/03/25 08:51:27;;;;;;;25.45;15.95;;;23.10;28.80;;;;;;5061179;28;20110;-71
2022/03/25 08:53:53;;;;;;;27.77;14.88;;;23.00;29.30;;;;;;5062153;28;20033;-68
2022/03/25 08:56:20;;;;;;;32.97;16.13;;;23.90;29.00;;;;;;5056909;28;20032;-69
2022/03/25 08:58:46;;;;;;;28.48;14.82;;;25.40;27.40;;;;;;5060373;28;20408;-68
2022/03/25 09:01:12;;;;;;;26.48;14.55;;;27.10;26.50;;;;;;5062246;28;20028;-69
2022/03/25 09:03:38;;;;;;;26.58;15.05;;;28.80;25.70;;;;;;5059961;28;20028;-70
2022/03/25 09:06:03;;;;;;;27.77;14.88;;;29.50;24.20;;;;;;5058916;28;20107;-69
2022/03/25 09:08:31;;;;;;;28.35;15.40;;;29.70;24.50;;;;;;5060865;28;20460;-69
2022/03/25 09:10:57;;;;;;;27.48;14.60;;;30.70;23.90;;;;;;5060236;28;20037;-69
2022/03/25 09:13:23;;;;;;;27.75;14.95;;;31.00;23.80;;;;;;5060196;28;20043;-69
2022/03/25 09:15:50;;;;;;;27.05;16.05;;;31.10;23.40;;;;;;5043494;28;20037;-69
2022/03/25 09:18:16;;;;;;;34.45;17.45;;;30.90;23.50;;;;;;5059327;28;20114;-68
2022/03/25 09:20:44;;;;;;;31.85;16.00;;;30.10;23.70;;;;;;5061360;28;20047;-68
2022/03/25 09:23:10;;;;;;;24.98;16.00;;;30.00;24.40;;;;;;5059126;28;20078;-68
2022/03/25 09:25:36;;;;;;;30.40;16.55;;;29.90;24.60;;;;;;5061910;28;20054;-68
2022/03/25 09:28:02;;;;;;;26.90;15.98;;;29.80;24.70;;;;;;5059229;28;20454;-67
2022/03/25 09:30:28;;;;;;;34.33;18.20;;;29.20;24.80;;;;;;5061582;28;20129;-68
2022/03/25 09:32:53;;;;;;;41.55;21.02;;;30.90;24.20;;;;;;5061900;28;20068;-68
2022/03/25 09:35:21;;;;;;;47.38;21.33;;;32.10;23.40;;;;;;5062981;28;20039;-66
2022/03/25 09:37:48;;;;;;;47.75;23.10;;;32.00;23.50;;;;;;5059133;28;20171;-68
2022/03/25 09:40:20;;;;;;;35.08;19.65;;;30.00;24.20;;;;;;5060065;28;20032;-68
2022/03/25 09:42:47;;;;;;;49.75;24.15;;;27.80;25.80;;;;;;5063062;28;20043;-68
2022/03/25 09:45:18;;;;;;;40.80;21.17;;;26.10;27.20;;;;;;5055462;28;20033;-68
2022/03/25 09:47:45;;;;;;;34.28;19.42;;;26.00;27.90;;;;;;5052139;28;20036;-68
2022/03/25 09:50:14;;;;;;;33.42;20.02;;;27.00;26.80;;;;;;5053054;28;20824;-68
2022/03/25 09:52:43;;;;;;;33.58;19.55;;;28.10;26.60;;;;;;5056781;28;20045;-68
2022/03/25 09:55:09;;;;;;;38.45;22.08;;;27.80;26.40;;;;;;5057192;28;20043;-68
2022/03/25 09:57:36;;;;;;;32.70;19.75;;;27.00;26.90;;;;;;5059306;28;20040;-68
2022/03/25 10:00:05;;;;;;;35.03;20.48;;;26.40;27.40;;;;;;5062298;28;20048;-69
2022/03/25 10:02:38;;;;;;;38.75;21.23;;;26.00;28.20;;;;;;5052651;28;20443;-68
2022/03/25 10:05:21;;;;;;;35.60;19.25;;;25.40;28.50;;;;;;5057293;28;20071;-68
2022/03/25 10:07:48;;;;;;;33.95;19.42;;;26.20;28.00;;;;;;5060789;28;20131;-68
2022/03/25 10:10:23;;;;;;;34.17;19.75;;;29.00;26.20;;;;;;5062473;28;20025;-69
2022/03/25 10:13:02;;;;;;;37.42;20.95;;;31.60;24.50;;;;;;5057799;28;20041;-71
2022/03/25 10:15:33;;;;;;;35.40;20.77;;;34.50;23.00;;;;;;5058989;28;20075;-70
2022/03/25 10:18:04;;;;;;;40.83;20.35;;;36.40;22.00;;;;;;5056405;28;20115;-68
2022/03/25 10:20:33;;;;;;;33.30;20.83;;;37.30;21.80;;;;;;5060468;28;20041;-69
2022/03/25 10:23:00;;;;;;;32.47;18.88;;;38.00;21.30;;;;;;5053987;28;20033;-69
2022/03/25 10:25:39;;;;;;;29.08;18.45;;;38.00;21.40;;;;;;5055997;28;20400;-69
2022/03/25 10:28:17;;;;;;;36.08;20.20;;;38.10;21.00;;;;;;5044958;28;20036;-70
2022/03/25 10:30:44;;;;;;;34.53;19.73;;;39.30;20.90;;;;;;5058921;28;20060;-66
2022/03/25 10:33:30;;;;;;;34.25;19.00;;;39.90;20.20;;;;;;5062795;28;20016;-67
2022/03/25 10:36:07;;;;;;;40.50;21.10;;;40.00;20.30;;;;;;5059838;28;20043;-69
2022/03/25 10:38:46;;;;;;;29.38;19.85;;;40.10;20.10;;;;;;5060652;28;20122;-69
2022/03/25 10:41:15;;;;;;;32.92;19.77;;;40.80;20.00;;;;;;5062544;28;20029;-69
2022/03/25 10:43:53;;;;;;;40.13;21.15;;;41.50;19.60;;;;;;5056441;28;20032;-68
2022/03/25 10:46:34;;;;;;;28.55;19.13;;;40.90;19.70;;;;;;5064642;28;20485;-69
2022/03/25 10:49:05;;;;;;;31.10;21.85;;;39.50;20.40;;;;;;5061922;28;20045;-69
2022/03/25 10:51:33;;;;;;;32.33;20.58;;;38.40;20.80;;;;;;5065504;28;20063;-69
2022/03/25 10:54:07;;;;;;;35.22;20.92;;;36.40;21.80;;;;;;5063506;28;20088;-68
2022/03/25 10:56:49;;;;;;;33.72;21.23;;;34.50;23.00;;;;;;5062675;28;20037;-69
2022/03/25 10:59:32;;;;;;;34.03;20.50;;;34.60;22.30;;;;;;5059092;28;20040;-69
2022/03/25 11:02:08;;;;;;;33.78;20.92;;;36.50;21.60;;;;;;5056570;28;20426;-69
2022/03/25 11:04:34;;;;;;;30.90;20.73;;;37.40;21.40;;;;;;5063338;28;20051;-69
2022/03/25 11:07:01;;;;;;;40.05;24.77;;;37.80;21.80;;;;;;5057380;28;20040;-69
2022/03/25 11:09:28;;;;;;;34.45;21.98;;;38.00;21.20;;;;;;5054787;28;20037;-69
2022/03/25 11:11:55;;;;;;;37.95;23.30;;;37.40;21.50;;;;;;5045918;28;20168;-69
2022/03/25 11:14:21;;;;;;;41.97;22.40;;;37.20;21.40;;;;;;5063015;28;20036;-69
2022/03/25 11:16:53;;;;;;;35.83;21.02;;;35.40;22.20;;;;;;5061290;28;20102;-68
2022/03/25 11:19:21;;;;;;;36.55;22.08;;;32.40;24.00;;;;;;5065150;28;20032;-68
2022/03/25 11:21:48;;;;;;;39.33;20.83;;;29.60;25.70;;;;;;5063624;28;20047;-68
2022/03/25 11:24:20;;;;;;;38.92;21.45;;;27.50;27.30;;;;;;5064535;28;20086;-68
2022/03/25 11:26:49;;;;;;;39.70;21.65;;;26.20;28.50;;;;;;5054481;28;20481;-68
2022/03/25 11:29:17;;;;;;;38.38;19.33;;;25.20;28.80;;;;;;5057923;28;20451;-68
2022/03/25 11:32:06;;;;;;;36.70;21.20;;;24.30;29.60;;;;;;5061845;28;20043;-68
2022/03/25 11:34:38;;;;;;;31.83;18.80;;;23.70;30.50;;;;;;5063849;28;20078;-68
2022/03/25 11:37:21;;;;;;;37.92;21.45;;;23.20;31.30;;;;;;5060671;28;20392;-68
2022/03/25 11:39:48;;;;;;;30.40;19.67;;;23.00;31.50;;;;;;5058935;28;20072;-68
2022/03/25 11:42:40;;;;;;;33.25;19.35;;;22.90;31.80;;;;;;5059606;28;20494;-68
2022/03/25 11:45:20;;;;;;;28.00;16.83;;;22.70;32.20;;;;;;5056937;28;20052;-69
2022/03/25 11:48:07;;;;;;;32.00;17.48;;;22.50;31.50;;;;;;5054170;28;20059;-69
2022/03/25 11:50:52;;;;;;;24.88;15.18;;;22.30;31.90;;;;;;5062860;28;20444;-68
2022/03/25 11:53:24;;;;;;;27.70;14.47;;;22.20;31.50;;;;;;5064647;28;20025;-68
2022/03/25 11:55:54;;;;;;;34.38;17.58;;;22.00;32.70;;;;;;5059490;28;20147;-68
2022/03/25 11:58:20;;;;;;;31.25;17.42;;;21.80;33.50;;;;;;5064077;28;20035;-68
2022/03/25 12:00:52;;;;;;;35.00;16.20;;;21.70;33.40;;;;;;5058806;28;20040;-68
2022/03/25 12:03:18;;;;;;;32.78;17.85;;;21.70;33.70;;;;;;5058301;28;20044;-68
2022/03/25 12:06:00;;;;;;;34.50;17.48;;;21.70;33.20;;;;;;5055253;28;20055;-68
2022/03/25 12:08:35;;;;;;;29.50;16.77;;;21.60;34.60;;;;;;5058568;28;20500;-68
2022/03/25 12:11:06;;;;;;;32.60;17.98;;;21.40;34.20;;;;;;5057316;28;20036;-68
2022/03/25 12:13:51;;;;;;;31.27;16.50;;;21.20;33.90;;;;;;5057499;28;20098;-68
2022/03/25 12:16:47;;;;;;;29.30;15.23;;;21.10;34.70;;;;;;5058082;28;20041;-68
2022/03/25 12:19:25;;;;;;;33.85;16.55;;;21.10;35.00;;;;;;5056284;28;20037;-68
2022/03/25 12:21:59;;;;;;;27.17;14.43;;;21.00;34.60;;;;;;5046454;28;20139;-67
2022/03/25 12:24:26;;;;;;;34.08;16.67;;;21.00;35.30;;;;;;5060745;28;20079;-67
2022/03/25 12:27:05;;;;;;;30.58;16.02;;;20.80;35.10;;;;;;5059596;28;20828;-66
2022/03/25 12:29:36;;;;;;;28.50;15.45;;;20.70;36.20;;;;;;5058271;28;20101;-66
2022/03/25 12:32:04;;;;;;;27.98;14.95;;;20.60;36.10;;;;;;5056028;28;20033;-66
2022/03/25 12:34:38;;;;;;;27.48;14.70;;;20.60;35.70;;;;;;5062134;28;20064;-66
2022/03/25 12:37:09;;;;;;;25.15;12.05;;;20.60;36.40;;;;;;5056480;28;20063;-67
2022/03/25 12:39:35;;;;;;;28.30;13.15;;;20.60;36.30;;;;;;5058658;28;20519;-66
2022/03/25 12:42:10;;;;;;;27.05;16.17;;;20.60;35.70;;;;;;5041683;28;20028;-66
2022/03/25 12:44:36;;;;;;;26.63;15.30;;;20.60;35.70;;;;;;5057720;28;20801;-66